createdAt,value
2022-11-27T00:01:58.813Z,99210.72
2022-11-27T00:07:00.254Z,99213.81
2022-11-27T00:12:01.637Z,99208.75
2022-11-27T00:17:03.003Z,99195.88
2022-11-27T00:22:04.475Z,99196.19
2022-11-27T00:27:05.920Z,99192.38
2022-11-27T00:32:08.103Z,99189.16
2022-11-27T00:37:09.511Z,99182.56
2022-11-27T00:42:11.003Z,99182.44
2022-11-27T00:47:12.387Z,99187.03
2022-11-27T00:52:13.864Z,99183.03
2022-11-27T00:57:15.250Z,99176.16
2022-11-27T01:02:16.684Z,99177.72
2022-11-27T01:07:18.109Z,99181.56
2022-11-27T01:12:19.544Z,99174.78
2022-11-27T01:17:20.939Z,99167.06
2022-11-27T01:22:22.640Z,99158.44
2022-11-27T01:27:24.066Z,99143.06
2022-11-27T01:32:26.119Z,99148.34
2022-11-27T01:37:27.622Z,99132.09
2022-11-27T01:42:28.981Z,99135.09
2022-11-27T01:47:43.633Z,99118.19
2022-11-27T01:52:50.126Z,99104.94
2022-11-27T01:58:02.142Z,99102.84
2022-11-27T02:03:04.324Z,99091.16
2022-11-27T02:08:12.094Z,99084.41
2022-11-27T02:13:23.351Z,99086.19
2022-11-27T02:18:55.792Z,99072.09
2022-11-27T02:24:46.795Z,99071.97
2022-11-27T02:29:54.193Z,99072.53
2022-11-27T02:35:06.371Z,99073.34
2022-11-27T02:40:13.842Z,99069.25
2022-11-27T02:45:21.450Z,99072.63
2022-11-27T02:50:26.028Z,99071.59
2022-11-27T02:55:32.263Z,99076.75
2022-11-27T03:00:35.371Z,99084.38
2022-11-27T03:05:39.582Z,99082.03
2022-11-27T03:10:51.959Z,99083.53
2022-11-27T03:16:02.507Z,99081.41
2022-11-27T03:21:28.452Z,99084.16
2022-11-27T03:26:30.808Z,99074.31
2022-11-27T03:31:32.807Z,99074.44
2022-11-27T03:36:34.268Z,99075.59
2022-11-27T03:42:02.494Z,99062.19
2022-11-27T03:47:41.875Z,99067.03
2022-11-27T03:52:57.319Z,99062.38
2022-11-27T03:58:08.545Z,99054.34
2022-11-27T04:03:11.587Z,99056.06
2022-11-27T04:08:12.971Z,99050.13
2022-11-27T04:13:14.741Z,99054.34
2022-11-27T04:18:16.114Z,99060.91
2022-11-27T04:23:17.575Z,99058.88
2022-11-27T04:28:19.083Z,99061.81
2022-11-27T04:33:20.940Z,99070.81
2022-11-27T04:38:23.586Z,99061.34
2022-11-27T04:43:25.023Z,99060.47
2022-11-27T04:48:26.391Z,99057.31
2022-11-27T04:53:27.854Z,99051.19
2022-11-27T04:58:29.247Z,99054.78
2022-11-27T05:03:30.691Z,99049.63
2022-11-27T05:08:33.290Z,99049.72
2022-11-27T05:13:35.127Z,99057.75
2022-11-27T05:18:36.595Z,99052.25
2022-11-27T05:23:37.958Z,99061.75
2022-11-27T05:28:39.320Z,99061.63
2022-11-27T05:33:40.694Z,99065.34
2022-11-27T05:38:42.118Z,99063.66
2022-11-27T05:43:43.558Z,99062.41
2022-11-27T05:48:44.922Z,99075.91
2022-11-27T05:53:46.366Z,99069.03
2022-11-27T05:58:48.545Z,99055.63
2022-11-27T06:03:50.026Z,99053.53
2022-11-27T06:08:51.518Z,99051.63
2022-11-27T06:13:52.922Z,99042.59
2022-11-27T06:18:55.961Z,99049.13
2022-11-27T06:23:57.396Z,99034.66
2022-11-27T06:29:00.975Z,99040.16
2022-11-27T06:34:03.714Z,99034.44
2022-11-27T06:39:06.582Z,99041.50
2022-11-27T06:44:09.367Z,99032.34
2022-11-27T06:49:12.746Z,99008.28
2022-11-27T06:54:14.151Z,99012.50
2022-11-27T06:59:16.265Z,99011.22
2022-11-27T07:04:17.708Z,99027.59
2022-11-27T07:09:19.086Z,99038.97
2022-11-27T07:14:20.462Z,99025.78
2022-11-27T07:19:21.825Z,99028.22
2022-11-27T07:24:23.282Z,99024.41
2022-11-27T07:29:24.707Z,99029.38
2022-11-27T07:34:26.059Z,99024.81
2022-11-27T07:39:54.116Z,99019.13
2022-11-27T07:44:49.106Z,99011.50
2022-11-27T07:49:50.499Z,98991.75
2022-11-27T07:54:51.904Z,98989.31
2022-11-27T07:59:53.963Z,98985.34
2022-11-27T08:04:55.417Z,98979.50
2022-11-27T08:10:00.295Z,98967.19
2022-11-27T08:15:04.471Z,98962.91
2022-11-27T08:20:07.171Z,98961.38
2022-11-27T08:25:09.092Z,98958.19
2022-11-27T08:30:10.680Z,98965.66
2022-11-27T08:35:12.214Z,98959.91
2022-11-27T08:40:14.021Z,98967.13
2022-11-27T08:45:15.536Z,98968.22
2022-11-27T08:50:17.064Z,98967.66
2022-11-27T08:55:18.438Z,98974.16
2022-11-27T09:00:24.929Z,98960.75
2022-11-27T09:05:29.934Z,98965.78
2022-11-27T09:10:31.336Z,98961.22
2022-11-27T09:15:32.742Z,98949.56
2022-11-27T09:20:34.190Z,98947.75
2022-11-27T09:25:39.041Z,98944.03
2022-11-27T09:30:40.442Z,98933.78
2022-11-27T09:35:41.910Z,98925.22
2022-11-27T09:40:52.106Z,98926.28
2022-11-27T09:45:58.501Z,98916.16
2022-11-27T09:51:02.361Z,98896.13
2022-11-27T09:56:06.792Z,98895.50
2022-11-27T10:01:16.174Z,98889.28
2022-11-27T10:06:23.113Z,98881.06
2022-11-27T10:11:33.947Z,98878.19
2022-11-27T10:16:45.648Z,98875.34
2022-11-27T10:21:55.455Z,98868.28
2022-11-27T10:26:59.179Z,98863.44
2022-11-27T10:32:52.971Z,98861.91
2022-11-27T10:38:06.430Z,98849.81
2022-11-27T10:43:18.919Z,98850.41
2022-11-27T10:48:21.028Z,98841.44
2022-11-27T10:53:37.190Z,98838.41
2022-11-27T10:58:46.996Z,98827.69
2022-11-27T11:03:48.747Z,98835.41
2022-11-27T11:09:24.224Z,98833.47
2022-11-27T11:14:26.954Z,98836.16
2022-11-27T11:19:38.934Z,98828.34
2022-11-27T11:24:46.243Z,98838.28
2022-11-27T11:29:55.206Z,98832.41
2022-11-27T11:35:01.493Z,98842.38
2022-11-27T11:40:09.777Z,98835.94
2022-11-27T11:45:13.354Z,98838.03
2022-11-27T11:50:25.336Z,98825.47
2022-11-27T11:55:35.483Z,98821.25
2022-11-27T12:01:26.136Z,98810.44
2022-11-27T12:06:24.427Z,98807.81
2022-11-27T12:11:42.333Z,98808.88
2022-11-27T12:17:01.478Z,98812.94
2022-11-27T12:22:15.018Z,98801.28
2022-11-27T12:27:16.331Z,98797.13
2022-11-27T12:32:52.042Z,98783.66
2022-11-27T12:38:22.296Z,98782.00
2022-11-27T12:43:24.992Z,98770.81
2022-11-27T12:48:42.351Z,98750.13
2022-11-27T12:53:49.227Z,98757.56
2022-11-27T12:58:59.047Z,98746.22
2022-11-27T13:04:29.120Z,98729.44
2022-11-27T13:09:45.585Z,98718.78
2022-11-27T13:14:55.044Z,98708.41
2022-11-27T13:19:56.791Z,98709.38
2022-11-27T13:25:01.644Z,98691.41
2022-11-27T13:30:06.802Z,98683.75
2022-11-27T13:35:21.802Z,98671.44
2022-11-27T13:40:31.559Z,98669.94
2022-11-27T13:45:36.905Z,98673.84
2022-11-27T13:50:45.835Z,98674.53
2022-11-27T13:55:56.646Z,98661.28
2022-11-27T14:00:58.765Z,98664.44
2022-11-27T14:06:00.216Z,98662.91
2022-11-27T14:11:06.434Z,98661.41
2022-11-27T14:16:30.248Z,98654.28
2022-11-27T14:21:42.697Z,98663.13
2022-11-27T14:26:44.234Z,98660.59
2022-11-27T14:31:45.724Z,98649.03
2022-11-27T14:36:52.040Z,98654.75
2022-11-27T14:42:01.556Z,98647.34
2022-11-27T14:47:06.568Z,98635.91
2022-11-27T14:52:14.726Z,98631.72
2022-11-27T14:57:35.153Z,98633.56
2022-11-27T15:02:36.812Z,98637.88
2022-11-27T15:07:45.400Z,98626.53
2022-11-27T15:12:49.721Z,98619.69
2022-11-27T15:18:17.923Z,98618.13
2022-11-27T15:23:27.751Z,98609.31
2022-11-27T15:28:32.633Z,98605.94
2022-11-27T15:33:34.233Z,98602.44
2022-11-27T15:38:35.624Z,98600.44
2022-11-27T15:43:37.014Z,98593.03
2022-11-27T15:48:39.314Z,98575.72
2022-11-27T15:53:40.876Z,98567.59
2022-11-27T15:58:43.292Z,98565.50
2022-11-27T16:03:44.770Z,98556.16
2022-11-27T16:08:46.142Z,98551.94
2022-11-27T16:13:47.649Z,98544.41
2022-11-27T16:18:49.083Z,98542.16
2022-11-27T16:23:50.503Z,98550.78
2022-11-27T16:28:52.047Z,98547.94
2022-11-27T16:33:54.009Z,98559.00
2022-11-27T16:38:58.356Z,98544.56
2022-11-27T16:43:59.765Z,98555.59
2022-11-27T16:49:01.344Z,98552.28
2022-11-27T16:54:06.224Z,98539.47
2022-11-27T16:59:10.571Z,98536.09
2022-11-27T17:04:18.648Z,98531.06
2022-11-27T17:09:22.424Z,98523.28
2022-11-27T17:14:26.684Z,98514.88
2022-11-27T17:19:29.942Z,98498.44
2022-11-27T17:24:31.709Z,98493.88
2022-11-27T17:29:37.642Z,98495.44
2022-11-27T17:34:39.942Z,98492.63
2022-11-27T17:39:43.461Z,98492.13
2022-11-27T17:44:45.695Z,98475.47
2022-11-27T17:49:47.082Z,98459.09
2022-11-27T17:54:48.562Z,98457.72
2022-11-27T17:59:50.258Z,98443.97
2022-11-27T18:04:52.488Z,98444.13
2022-11-27T18:10:00.627Z,98442.03
2022-11-27T18:27:35.914Z,98403.72
2022-11-27T18:32:38.181Z,98394.88
2022-11-27T18:37:39.598Z,98393.59
2022-11-27T18:42:40.963Z,98387.06
2022-11-27T18:47:42.339Z,98381.19
2022-11-27T18:52:43.730Z,98380.84
2022-11-27T18:57:46.235Z,98374.31
2022-11-27T19:02:49.977Z,98384.56
2022-11-27T19:07:53.488Z,98389.69
2022-11-27T19:12:59.080Z,98396.47
2022-11-27T19:18:01.160Z,98383.88
2022-11-27T19:28:45.574Z,98381.63
2022-11-27T19:34:15.992Z,98384.28
2022-11-27T19:39:24.151Z,98377.81
2022-11-27T19:44:27.861Z,98368.94
2022-11-27T19:49:35.611Z,98368.69
2022-11-27T19:54:37.349Z,98363.66
2022-11-27T19:59:40.111Z,98356.56
2022-11-27T20:04:43.850Z,98348.16
2022-11-27T20:09:45.585Z,98345.94
2022-11-27T20:14:47.031Z,98347.03
2022-11-27T20:19:48.742Z,98340.91
2022-11-27T20:25:11.640Z,98329.50
2022-11-27T20:30:12.747Z,98323.63
2022-11-27T20:35:15.128Z,98319.47
2022-11-27T20:40:16.927Z,98326.50
2022-11-27T20:45:20.521Z,98330.28
2022-11-27T20:50:23.463Z,98324.59
2022-11-27T20:55:25.028Z,98318.34
2022-11-27T21:00:26.914Z,98306.00
2022-11-27T21:05:28.331Z,98307.78
2022-11-27T21:10:29.873Z,98296.25
2022-11-27T21:15:31.307Z,98297.72
2022-11-27T21:20:32.847Z,98301.13
2022-11-27T21:25:34.336Z,98293.88
2022-11-27T21:30:35.843Z,98284.78
2022-11-27T21:35:40.308Z,98283.25
2022-11-27T21:40:42.300Z,98263.34
2022-11-27T21:45:43.733Z,98261.53
2022-11-27T21:50:45.252Z,98261.16
2022-11-27T21:55:46.691Z,98241.72
2022-11-27T22:00:51.560Z,98236.16
2022-11-27T22:06:01.483Z,98231.59
2022-11-27T22:11:07.489Z,98235.88
2022-11-27T22:16:15.427Z,98225.22
2022-11-27T22:21:17.558Z,98211.19
2022-11-27T22:26:21.039Z,98211.44
2022-11-27T22:31:30.165Z,98205.91
2022-11-27T22:36:35.478Z,98195.34
2022-11-27T22:41:40.417Z,98193.78
2022-11-27T22:46:43.401Z,98193.06
2022-11-27T22:51:46.114Z,98181.69
2022-11-27T22:56:48.912Z,98186.97
2022-11-27T23:01:50.284Z,98190.59
2022-11-27T23:06:51.853Z,98180.03
2022-11-27T23:11:53.407Z,98175.13
2022-11-27T23:16:55.968Z,98166.09
2022-11-27T23:21:57.517Z,98165.84
2022-11-27T23:26:58.891Z,98157.66
2022-11-27T23:32:00.997Z,98159.78
2022-11-27T23:37:02.620Z,98161.31
2022-11-27T23:42:04.437Z,98151.84
2022-11-27T23:47:06.271Z,98149.34
2022-11-27T23:52:09.344Z,98139.38
2022-11-27T23:57:13.316Z,98139.94
